Terminal Aerodrome Forecast
Issued by NWS Missoula, MT

Home | Current Version | Previous Version | Text Only | Print | Product List | Glossary On
Versions: 1 2 3 4 5 6 7 8 9 10 11 12 13 14 15 16 17 18 19
000
FTUS45 KMSO 221100
TAFBTM
TAF
KBTM 221120Z 2212/2312 15010KT P6SM VCSH BKN110
     FM221800 12005KT P6SM -SHRA VCTS BKN030 OVC050CB
     FM230400 10010KT P6SM -RA OVC040=

USA.gov is the U.S. government's official web portal to all federal, state and local government web resources and services.